sensor_id;sensor_type;location;lat;lon;timestamp;P1;durP1;ratioP1;P2;durP2;ratioP2
38935;SDS011;25541;47.458;9.644;2022-07-17T04:02:09;2.95;;;0.80;;
38935;SDS011;25541;47.458;9.644;2022-07-17T04:04:35;3.78;;;1.08;;
38935;SDS011;25541;47.458;9.644;2022-07-17T04:07:01;2.08;;;0.80;;
38935;SDS011;25541;47.458;9.644;2022-07-17T04:09:26;4.68;;;1.20;;
38935;SDS011;25541;47.458;9.644;2022-07-17T04:11:52;2.53;;;0.90;;
38935;SDS011;25541;47.458;9.644;2022-07-17T04:14:18;3.15;;;0.77;;
38935;SDS011;25541;47.458;9.644;2022-07-17T04:16:44;2.85;;;0.68;;
38935;SDS011;25541;47.458;9.644;2022-07-17T04:19:09;2.80;;;0.80;;
38935;SDS011;25541;47.458;9.644;2022-07-17T04:21:35;4.55;;;0.93;;
38935;SDS011;25541;47.458;9.644;2022-07-17T04:24:01;1.83;;;0.82;;
38935;SDS011;25541;47.458;9.644;2022-07-17T04:26:26;3.75;;;1.40;;
38935;SDS011;25541;47.458;9.644;2022-07-17T04:28:52;2.42;;;0.93;;
38935;SDS011;25541;47.458;9.644;2022-07-17T04:31:18;6.10;;;1.30;;
38935;SDS011;25541;47.458;9.644;2022-07-17T04:33:43;4.75;;;1.13;;
38935;SDS011;25541;47.458;9.644;2022-07-17T04:36:09;5.82;;;1.38;;
38935;SDS011;25541;47.458;9.644;2022-07-17T04:38:35;3.67;;;1.27;;
38935;SDS011;25541;47.458;9.644;2022-07-17T04:41:00;3.10;;;1.33;;
38935;SDS011;25541;47.458;9.644;2022-07-17T04:43:26;3.88;;;1.35;;
38935;SDS011;25541;47.458;9.644;2022-07-17T04:45:52;3.35;;;1.60;;
38935;SDS011;25541;47.458;9.644;2022-07-17T04:48:18;4.03;;;1.02;;
38935;SDS011;25541;47.458;9.644;2022-07-17T04:50:43;2.70;;;1.20;;
38935;SDS011;25541;47.458;9.644;2022-07-17T04:53:09;4.35;;;1.30;;
38935;SDS011;25541;47.458;9.644;2022-07-17T04:55:35;3.03;;;1.38;;
38935;SDS011;25541;47.458;9.644;2022-07-17T04:58:02;5.35;;;1.65;;
38935;SDS011;25541;47.458;9.644;2022-07-17T05:00:27;2.60;;;1.30;;
38935;SDS011;25541;47.458;9.644;2022-07-17T05:02:53;6.32;;;1.58;;
38935;SDS011;25541;47.458;9.644;2022-07-17T05:05:19;4.53;;;1.90;;
38935;SDS011;25541;47.458;9.644;2022-07-17T05:07:45;5.45;;;1.50;;
38935;SDS011;25541;47.458;9.644;2022-07-17T05:10:11;2.60;;;1.52;;
38935;SDS011;25541;47.458;9.644;2022-07-17T05:12:36;2.42;;;1.23;;
38935;SDS011;25541;47.458;9.644;2022-07-17T05:15:02;3.25;;;1.55;;
38935;SDS011;25541;47.458;9.644;2022-07-17T05:17:28;3.05;;;1.38;;
38935;SDS011;25541;47.458;9.644;2022-07-17T05:19:54;3.10;;;1.52;;
38935;SDS011;25541;47.458;9.644;2022-07-17T05:22:20;3.28;;;1.35;;
38935;SDS011;25541;47.458;9.644;2022-07-17T05:24:45;3.38;;;1.45;;
38935;SDS011;25541;47.458;9.644;2022-07-17T05:27:11;3.97;;;1.80;;
38935;SDS011;25541;47.458;9.644;2022-07-17T05:29:37;4.07;;;1.48;;
38935;SDS011;25541;47.458;9.644;2022-07-17T05:32:03;8.10;;;1.70;;
38935;SDS011;25541;47.458;9.644;2022-07-17T05:34:29;4.40;;;1.80;;
38935;SDS011;25541;47.458;9.644;2022-07-17T05:36:55;4.22;;;1.50;;
38935;SDS011;25541;47.458;9.644;2022-07-17T05:39:20;5.28;;;1.52;;
38935;SDS011;25541;47.458;9.644;2022-07-17T05:41:46;3.20;;;1.60;;
38935;SDS011;25541;47.458;9.644;2022-07-17T05:44:12;3.28;;;1.27;;
38935;SDS011;25541;47.458;9.644;2022-07-17T05:46:37;3.72;;;1.58;;
38935;SDS011;25541;47.458;9.644;2022-07-17T05:49:03;3.45;;;1.55;;
38935;SDS011;25541;47.458;9.644;2022-07-17T05:51:29;3.88;;;1.95;;
38935;SDS011;25541;47.458;9.644;2022-07-17T05:53:54;2.00;;;1.48;;
38935;SDS011;25541;47.458;9.644;2022-07-17T05:56:20;4.03;;;1.55;;
38935;SDS011;25541;47.458;9.644;2022-07-17T05:58:46;3.22;;;1.63;;
38935;SDS011;25541;47.458;9.644;2022-07-17T06:01:11;4.28;;;2.03;;
38935;SDS011;25541;47.458;9.644;2022-07-17T06:03:37;6.05;;;2.22;;
38935;SDS011;25541;47.458;9.644;2022-07-17T06:06:03;5.55;;;2.10;;
38935;SDS011;25541;47.458;9.644;2022-07-17T06:08:28;4.57;;;2.20;;
38935;SDS011;25541;47.458;9.644;2022-07-17T06:10:54;5.10;;;2.50;;
38935;SDS011;25541;47.458;9.644;2022-07-17T06:13:20;4.32;;;1.55;;
38935;SDS011;25541;47.458;9.644;2022-07-17T06:15:45;3.92;;;1.92;;
38935;SDS011;25541;47.458;9.644;2022-07-17T06:18:11;4.35;;;1.73;;
38935;SDS011;25541;47.458;9.644;2022-07-17T06:20:37;5.05;;;2.25;;
38935;SDS011;25541;47.458;9.644;2022-07-17T06:23:03;3.45;;;1.77;;
38935;SDS011;25541;47.458;9.644;2022-07-17T06:25:28;3.30;;;1.88;;
38935;SDS011;25541;47.458;9.644;2022-07-17T06:27:54;4.00;;;2.20;;
38935;SDS011;25541;47.458;9.644;2022-07-17T06:30:20;2.72;;;1.63;;
38935;SDS011;25541;47.458;9.644;2022-07-17T06:32:45;3.35;;;1.77;;
38935;SDS011;25541;47.458;9.644;2022-07-17T06:35:11;4.82;;;2.25;;
38935;SDS011;25541;47.458;9.644;2022-07-17T06:37:37;3.88;;;1.98;;
38935;SDS011;25541;47.458;9.644;2022-07-17T06:40:03;2.72;;;1.60;;
38935;SDS011;25541;47.458;9.644;2022-07-17T06:42:30;4.05;;;2.17;;
38935;SDS011;25541;47.458;9.644;2022-07-17T06:44:56;4.75;;;1.58;;
38935;SDS011;25541;47.458;9.644;2022-07-17T06:47:22;3.95;;;2.47;;
38935;SDS011;25541;47.458;9.644;2022-07-17T06:49:47;4.40;;;2.00;;
38935;SDS011;25541;47.458;9.644;2022-07-17T06:52:13;2.70;;;2.00;;
38935;SDS011;25541;47.458;9.644;2022-07-17T06:54:39;3.42;;;2.00;;
38935;SDS011;25541;47.458;9.644;2022-07-17T06:57:04;4.50;;;1.95;;
38935;SDS011;25541;47.458;9.644;2022-07-17T06:59:30;3.15;;;2.00;;
38935;SDS011;25541;47.458;9.644;2022-07-17T07:01:56;2.85;;;1.60;;
38935;SDS011;25541;47.458;9.644;2022-07-17T07:04:23;3.55;;;1.90;;
38935;SDS011;25541;47.458;9.644;2022-07-17T07:06:48;2.85;;;1.92;;
38935;SDS011;25541;47.458;9.644;2022-07-17T07:09:14;3.78;;;1.75;;
38935;SDS011;25541;47.458;9.644;2022-07-17T07:11:40;3.95;;;1.90;;
38935;SDS011;25541;47.458;9.644;2022-07-17T07:14:06;3.25;;;1.73;;
38935;SDS011;25541;47.458;9.644;2022-07-17T07:16:32;4.10;;;2.75;;
38935;SDS011;25541;47.458;9.644;2022-07-17T07:18:59;3.58;;;2.25;;
38935;SDS011;25541;47.458;9.644;2022-07-17T07:21:25;2.80;;;1.67;;
38935;SDS011;25541;47.458;9.644;2022-07-17T07:23:51;2.40;;;2.13;;
38935;SDS011;25541;47.458;9.644;2022-07-17T07:26:18;3.20;;;2.90;;
38935;SDS011;25541;47.458;9.644;2022-07-17T07:28:43;4.15;;;2.45;;
38935;SDS011;25541;47.458;9.644;2022-07-17T07:31:09;7.32;;;1.98;;
38935;SDS011;25541;47.458;9.644;2022-07-17T07:33:35;4.25;;;2.28;;
38935;SDS011;25541;47.458;9.644;2022-07-17T07:36:02;3.95;;;2.60;;
38935;SDS011;25541;47.458;9.644;2022-07-17T07:38:28;5.38;;;2.17;;
38935;SDS011;25541;47.458;9.644;2022-07-17T07:40:54;3.63;;;3.17;;
38935;SDS011;25541;47.458;9.644;2022-07-17T07:43:20;4.03;;;2.83;;
38935;SDS011;25541;47.458;9.644;2022-07-17T07:45:46;4.50;;;2.65;;
38935;SDS011;25541;47.458;9.644;2022-07-17T07:48:12;3.63;;;3.25;;
38935;SDS011;25541;47.458;9.644;2022-07-17T07:50:38;3.15;;;2.85;;
38935;SDS011;25541;47.458;9.644;2022-07-17T07:53:04;5.30;;;2.58;;
38935;SDS011;25541;47.458;9.644;2022-07-17T07:55:30;3.38;;;2.58;;
38935;SDS011;25541;47.458;9.644;2022-07-17T07:58:03;3.97;;;3.28;;
38935;SDS011;25541;47.458;9.644;2022-07-17T08:00:36;4.00;;;3.58;;
38935;SDS011;25541;47.458;9.644;2022-07-17T08:03:03;4.32;;;3.92;;
38935;SDS011;25541;47.458;9.644;2022-07-17T08:05:29;3.40;;;2.97;;
38935;SDS011;25541;47.458;9.644;2022-07-17T08:07:56;4.32;;;3.28;;
38935;SDS011;25541;47.458;9.644;2022-07-17T08:10:22;3.47;;;2.72;;
38935;SDS011;25541;47.458;9.644;2022-07-17T08:12:48;3.60;;;3.30;;
38935;SDS011;25541;47.458;9.644;2022-07-17T08:15:14;5.45;;;3.30;;
38935;SDS011;25541;47.458;9.644;2022-07-17T08:20:07;4.57;;;4.15;;
38935;SDS011;25541;47.458;9.644;2022-07-17T08:22:33;5.00;;;4.32;;
38935;SDS011;25541;47.458;9.644;2022-07-17T08:24:59;3.97;;;3.28;;
38935;SDS011;25541;47.458;9.644;2022-07-17T08:27:25;4.22;;;3.83;;
38935;SDS011;25541;47.458;9.644;2022-07-17T08:29:50;6.55;;;4.63;;
38935;SDS011;25541;47.458;9.644;2022-07-17T08:32:16;4.47;;;4.10;;
38935;SDS011;25541;47.458;9.644;2022-07-17T08:34:42;7.22;;;3.97;;
38935;SDS011;25541;47.458;9.644;2022-07-17T08:37:07;4.65;;;4.25;;
38935;SDS011;25541;47.458;9.644;2022-07-17T08:39:33;6.03;;;5.25;;
38935;SDS011;25541;47.458;9.644;2022-07-17T08:42:01;5.32;;;4.45;;
38935;SDS011;25541;47.458;9.644;2022-07-17T08:44:28;5.45;;;4.90;;
38935;SDS011;25541;47.458;9.644;2022-07-17T08:46:53;4.72;;;4.30;;
38935;SDS011;25541;47.458;9.644;2022-07-17T08:49:20;6.88;;;4.53;;
38935;SDS011;25541;47.458;9.644;2022-07-17T08:51:47;7.88;;;6.20;;
38935;SDS011;25541;47.458;9.644;2022-07-17T08:54:13;5.38;;;4.85;;
38935;SDS011;25541;47.458;9.644;2022-07-17T08:56:40;6.65;;;5.63;;
38935;SDS011;25541;47.458;9.644;2022-07-17T08:59:05;7.25;;;5.45;;
38935;SDS011;25541;47.458;9.644;2022-07-17T09:01:31;6.07;;;5.55;;
38935;SDS011;25541;47.458;9.644;2022-07-17T09:03:58;6.10;;;4.93;;
38935;SDS011;25541;47.458;9.644;2022-07-17T09:06:30;5.60;;;5.07;;
38935;SDS011;25541;47.458;9.644;2022-07-17T09:11:49;6.57;;;5.97;;
38935;SDS011;25541;47.458;9.644;2022-07-17T09:14:18;6.22;;;5.72;;
38935;SDS011;25541;47.458;9.644;2022-07-17T09:19:26;6.63;;;5.80;;
38935;SDS011;25541;47.458;9.644;2022-07-17T09:22:13;8.25;;;7.60;;
38935;SDS011;25541;47.458;9.644;2022-07-17T09:24:39;7.25;;;6.55;;
38935;SDS011;25541;47.458;9.644;2022-07-17T09:27:32;7.97;;;6.53;;
38935;SDS011;25541;47.458;9.644;2022-07-17T09:30:11;7.10;;;6.40;;
38935;SDS011;25541;47.458;9.644;2022-07-17T09:32:40;8.38;;;6.28;;
38935;SDS011;25541;47.458;9.644;2022-07-17T09:35:07;9.30;;;8.35;;
38935;SDS011;25541;47.458;9.644;2022-07-17T09:37:36;6.35;;;5.45;;
38935;SDS011;25541;47.458;9.644;2022-07-17T09:40:09;8.05;;;7.28;;
38935;SDS011;25541;47.458;9.644;2022-07-17T09:42:36;9.23;;;6.50;;
38935;SDS011;25541;47.458;9.644;2022-07-17T09:45:03;6.72;;;5.90;;
38935;SDS011;25541;47.458;9.644;2022-07-17T09:47:33;6.68;;;6.07;;
38935;SDS011;25541;47.458;9.644;2022-07-17T09:50:01;7.93;;;6.65;;
38935;SDS011;25541;47.458;9.644;2022-07-17T09:52:29;7.40;;;6.70;;
38935;SDS011;25541;47.458;9.644;2022-07-17T09:54:57;6.68;;;6.10;;
38935;SDS011;25541;47.458;9.644;2022-07-17T09:57:27;8.20;;;5.65;;
38935;SDS011;25541;47.458;9.644;2022-07-17T10:00:15;6.35;;;5.80;;
38935;SDS011;25541;47.458;9.644;2022-07-17T10:02:42;8.23;;;7.25;;
38935;SDS011;25541;47.458;9.644;2022-07-17T10:05:12;6.47;;;5.28;;
38935;SDS011;25541;47.458;9.644;2022-07-17T10:07:42;6.03;;;5.38;;
38935;SDS011;25541;47.458;9.644;2022-07-17T10:10:10;7.18;;;6.57;;
38935;SDS011;25541;47.458;9.644;2022-07-17T10:12:38;8.43;;;7.25;;
38935;SDS011;25541;47.458;9.644;2022-07-17T10:15:05;5.18;;;4.68;;
38935;SDS011;25541;47.458;9.644;2022-07-17T10:17:32;5.97;;;5.47;;
38935;SDS011;25541;47.458;9.644;2022-07-17T10:19:58;7.07;;;4.47;;
38935;SDS011;25541;47.458;9.644;2022-07-17T10:22:25;4.60;;;4.20;;
38935;SDS011;25541;47.458;9.644;2022-07-17T10:24:53;4.47;;;3.88;;
38935;SDS011;25541;47.458;9.644;2022-07-17T10:27:26;3.25;;;2.67;;
38935;SDS011;25541;47.458;9.644;2022-07-17T10:32:34;5.40;;;2.63;;
38935;SDS011;25541;47.458;9.644;2022-07-17T10:37:38;3.55;;;1.90;;
38935;SDS011;25541;47.458;9.644;2022-07-17T10:40:07;3.60;;;2.58;;
38935;SDS011;25541;47.458;9.644;2022-07-17T10:43:00;2.85;;;1.77;;
38935;SDS011;25541;47.458;9.644;2022-07-17T10:47:59;2.80;;;1.58;;
38935;SDS011;25541;47.458;9.644;2022-07-17T10:53:04;5.07;;;1.48;;
38935;SDS011;25541;47.458;9.644;2022-07-17T10:55:30;3.08;;;2.13;;
38935;SDS011;25541;47.458;9.644;2022-07-17T10:57:57;2.75;;;1.25;;
38935;SDS011;25541;47.458;9.644;2022-07-17T11:00:23;3.80;;;1.63;;
38935;SDS011;25541;47.458;9.644;2022-07-17T11:02:49;2.38;;;1.38;;
38935;SDS011;25541;47.458;9.644;2022-07-17T11:05:15;6.32;;;1.40;;
38935;SDS011;25541;47.458;9.644;2022-07-17T11:07:52;6.57;;;1.58;;
38935;SDS011;25541;47.458;9.644;2022-07-17T11:10:24;2.50;;;1.48;;
38935;SDS011;25541;47.458;9.644;2022-07-17T11:12:51;2.83;;;1.10;;
38935;SDS011;25541;47.458;9.644;2022-07-17T11:15:18;2.88;;;1.30;;
38935;SDS011;25541;47.458;9.644;2022-07-17T11:17:45;4.40;;;1.13;;
38935;SDS011;25541;47.458;9.644;2022-07-17T11:20:15;2.38;;;1.25;;
38935;SDS011;25541;47.458;9.644;2022-07-17T11:22:42;2.75;;;1.38;;
38935;SDS011;25541;47.458;9.644;2022-07-17T11:25:08;3.35;;;1.05;;
38935;SDS011;25541;47.458;9.644;2022-07-17T11:27:36;4.38;;;1.15;;
38935;SDS011;25541;47.458;9.644;2022-07-17T11:30:03;2.85;;;1.20;;
38935;SDS011;25541;47.458;9.644;2022-07-17T11:32:34;8.18;;;1.63;;
38935;SDS011;25541;47.458;9.644;2022-07-17T11:35:13;3.17;;;1.10;;
38935;SDS011;25541;47.458;9.644;2022-07-17T11:40:09;2.92;;;1.17;;
38935;SDS011;25541;47.458;9.644;2022-07-17T11:42:35;2.17;;;0.90;;
38935;SDS011;25541;47.458;9.644;2022-07-17T11:45:00;3.13;;;1.15;;
38935;SDS011;25541;47.458;9.644;2022-07-17T11:47:26;6.20;;;0.85;;
38935;SDS011;25541;47.458;9.644;2022-07-17T11:52:47;2.35;;;1.13;;
38935;SDS011;25541;47.458;9.644;2022-07-17T11:55:16;2.30;;;0.93;;
38935;SDS011;25541;47.458;9.644;2022-07-17T11:57:48;1.80;;;0.98;;
38935;SDS011;25541;47.458;9.644;2022-07-17T12:00:16;4.35;;;0.93;;
38935;SDS011;25541;47.458;9.644;2022-07-17T12:02:44;2.70;;;1.10;;
38935;SDS011;25541;47.458;9.644;2022-07-17T12:05:10;5.38;;;1.17;;
38935;SDS011;25541;47.458;9.644;2022-07-17T12:07:40;2.20;;;1.23;;
38935;SDS011;25541;47.458;9.644;2022-07-17T12:10:11;3.55;;;0.95;;
38935;SDS011;25541;47.458;9.644;2022-07-17T12:12:51;2.05;;;0.98;;
38935;SDS011;25541;47.458;9.644;2022-07-17T12:15:17;4.82;;;1.65;;
38935;SDS011;25541;47.458;9.644;2022-07-17T12:17:43;5.00;;;1.23;;
38935;SDS011;25541;47.458;9.644;2022-07-17T12:20:09;3.92;;;1.35;;
38935;SDS011;25541;47.458;9.644;2022-07-17T12:22:45;2.97;;;0.95;;
38935;SDS011;25541;47.458;9.644;2022-07-17T12:25:24;2.17;;;0.65;;
38935;SDS011;25541;47.458;9.644;2022-07-17T12:27:51;2.92;;;1.00;;
38935;SDS011;25541;47.458;9.644;2022-07-17T12:30:16;4.15;;;1.80;;
38935;SDS011;25541;47.458;9.644;2022-07-17T12:32:43;4.20;;;1.08;;
38935;SDS011;25541;47.458;9.644;2022-07-17T12:35:09;3.42;;;1.17;;
38935;SDS011;25541;47.458;9.644;2022-07-17T12:37:35;2.53;;;1.23;;
38935;SDS011;25541;47.458;9.644;2022-07-17T12:40:01;2.03;;;1.13;;
38935;SDS011;25541;47.458;9.644;2022-07-17T12:42:26;3.30;;;1.30;;
38935;SDS011;25541;47.458;9.644;2022-07-17T12:44:52;4.75;;;0.80;;
38935;SDS011;25541;47.458;9.644;2022-07-17T12:47:18;6.05;;;1.15;;
38935;SDS011;25541;47.458;9.644;2022-07-17T12:49:44;3.35;;;1.10;;
38935;SDS011;25541;47.458;9.644;2022-07-17T12:52:09;3.25;;;1.52;;
38935;SDS011;25541;47.458;9.644;2022-07-17T12:54:35;4.38;;;0.93;;
38935;SDS011;25541;47.458;9.644;2022-07-17T12:57:01;3.65;;;1.05;;
38935;SDS011;25541;47.458;9.644;2022-07-17T12:59:27;4.25;;;1.08;;
38935;SDS011;25541;47.458;9.644;2022-07-17T13:01:52;3.58;;;1.20;;
38935;SDS011;25541;47.458;9.644;2022-07-17T13:04:19;4.47;;;1.10;;
38935;SDS011;25541;47.458;9.644;2022-07-17T13:06:45;2.50;;;1.23;;
38935;SDS011;25541;47.458;9.644;2022-07-17T13:09:12;3.53;;;0.93;;
38935;SDS011;25541;47.458;9.644;2022-07-17T13:11:40;2.28;;;0.93;;
38935;SDS011;25541;47.458;9.644;2022-07-17T13:14:09;2.60;;;1.15;;
38935;SDS011;25541;47.458;9.644;2022-07-17T13:16:38;2.97;;;1.00;;
38935;SDS011;25541;47.458;9.644;2022-07-17T13:19:05;3.03;;;1.20;;
38935;SDS011;25541;47.458;9.644;2022-07-17T13:21:31;2.72;;;1.00;;
38935;SDS011;25541;47.458;9.644;2022-07-17T13:23:57;3.55;;;1.00;;
38935;SDS011;25541;47.458;9.644;2022-07-17T13:26:23;4.72;;;0.98;;
38935;SDS011;25541;47.458;9.644;2022-07-17T13:28:49;1.95;;;1.08;;
38935;SDS011;25541;47.458;9.644;2022-07-17T13:31:14;1.98;;;1.08;;
38935;SDS011;25541;47.458;9.644;2022-07-17T13:33:40;2.22;;;0.90;;
38935;SDS011;25541;47.458;9.644;2022-07-17T13:36:06;3.67;;;1.90;;
38935;SDS011;25541;47.458;9.644;2022-07-17T13:38:32;3.40;;;1.42;;
38935;SDS011;25541;47.458;9.644;2022-07-17T13:40:58;4.03;;;1.40;;
38935;SDS011;25541;47.458;9.644;2022-07-17T13:43:23;3.30;;;1.10;;
38935;SDS011;25541;47.458;9.644;2022-07-17T13:45:49;2.10;;;0.88;;
38935;SDS011;25541;47.458;9.644;2022-07-17T13:48:15;5.80;;;0.95;;
38935;SDS011;25541;47.458;9.644;2022-07-17T13:50:41;2.42;;;0.93;;
38935;SDS011;25541;47.458;9.644;2022-07-17T13:53:07;5.18;;;1.45;;
38935;SDS011;25541;47.458;9.644;2022-07-17T13:55:33;3.53;;;1.15;;
38935;SDS011;25541;47.458;9.644;2022-07-17T13:57:59;5.55;;;1.13;;
38935;SDS011;25541;47.458;9.644;2022-07-17T14:00:25;3.55;;;0.90;;
38935;SDS011;25541;47.458;9.644;2022-07-17T14:02:51;3.42;;;1.45;;
38935;SDS011;25541;47.458;9.644;2022-07-17T14:05:16;2.50;;;1.30;;
38935;SDS011;25541;47.458;9.644;2022-07-17T14:07:42;3.97;;;1.10;;
38935;SDS011;25541;47.458;9.644;2022-07-17T14:10:08;4.00;;;0.85;;
38935;SDS011;25541;47.458;9.644;2022-07-17T14:12:35;2.63;;;1.00;;
38935;SDS011;25541;47.458;9.644;2022-07-17T14:15:02;5.07;;;1.65;;
38935;SDS011;25541;47.458;9.644;2022-07-17T14:17:28;1.77;;;0.98;;
38935;SDS011;25541;47.458;9.644;2022-07-17T14:19:54;3.22;;;1.13;;
38935;SDS011;25541;47.458;9.644;2022-07-17T14:22:20;4.40;;;1.00;;
38935;SDS011;25541;47.458;9.644;2022-07-17T14:24:46;3.42;;;0.95;;
38935;SDS011;25541;47.458;9.644;2022-07-17T14:27:11;1.83;;;1.08;;
38935;SDS011;25541;47.458;9.644;2022-07-17T14:29:37;1.75;;;0.80;;
38935;SDS011;25541;47.458;9.644;2022-07-17T14:32:03;1.63;;;0.90;;
38935;SDS011;25541;47.458;9.644;2022-07-17T14:34:29;2.88;;;0.98;;
38935;SDS011;25541;47.458;9.644;2022-07-17T14:36:55;3.20;;;0.90;;
38935;SDS011;25541;47.458;9.644;2022-07-17T14:39:21;3.78;;;0.63;;
38935;SDS011;25541;47.458;9.644;2022-07-17T14:41:47;2.22;;;0.98;;
38935;SDS011;25541;47.458;9.644;2022-07-17T14:44:12;3.78;;;1.08;;
38935;SDS011;25541;47.458;9.644;2022-07-17T14:46:39;5.97;;;1.02;;
38935;SDS011;25541;47.458;9.644;2022-07-17T14:49:04;1.50;;;0.80;;
38935;SDS011;25541;47.458;9.644;2022-07-17T14:51:30;2.63;;;1.08;;
38935;SDS011;25541;47.458;9.644;2022-07-17T14:53:56;4.78;;;1.23;;
38935;SDS011;25541;47.458;9.644;2022-07-17T14:56:22;2.75;;;1.30;;
38935;SDS011;25541;47.458;9.644;2022-07-17T14:58:48;2.28;;;1.17;;
38935;SDS011;25541;47.458;9.644;2022-07-17T15:01:14;2.42;;;0.80;;
38935;SDS011;25541;47.458;9.644;2022-07-17T15:03:39;2.50;;;1.30;;
38935;SDS011;25541;47.458;9.644;2022-07-17T15:06:05;1.77;;;0.80;;
38935;SDS011;25541;47.458;9.644;2022-07-17T15:08:31;2.20;;;0.82;;
38935;SDS011;25541;47.458;9.644;2022-07-17T15:10:57;3.65;;;0.75;;
38935;SDS011;25541;47.458;9.644;2022-07-17T15:13:23;2.47;;;1.10;;
38935;SDS011;25541;47.458;9.644;2022-07-17T15:15:49;2.38;;;0.90;;
38935;SDS011;25541;47.458;9.644;2022-07-17T15:18:15;3.60;;;0.70;;
38935;SDS011;25541;47.458;9.644;2022-07-17T15:20:40;4.70;;;1.30;;
38935;SDS011;25541;47.458;9.644;2022-07-17T15:23:06;2.60;;;1.08;;
38935;SDS011;25541;47.458;9.644;2022-07-17T15:25:32;3.85;;;1.00;;
38935;SDS011;25541;47.458;9.644;2022-07-17T15:27:58;4.43;;;0.80;;
38935;SDS011;25541;47.458;9.644;2022-07-17T15:30:24;1.58;;;0.82;;
38935;SDS011;25541;47.458;9.644;2022-07-17T15:32:49;1.33;;;0.88;;
38935;SDS011;25541;47.458;9.644;2022-07-17T15:35:15;2.55;;;0.90;;
38935;SDS011;25541;47.458;9.644;2022-07-17T15:37:41;2.15;;;1.10;;
38935;SDS011;25541;47.458;9.644;2022-07-17T15:40:07;1.83;;;0.77;;
38935;SDS011;25541;47.458;9.644;2022-07-17T15:42:33;1.90;;;0.93;;
38935;SDS011;25541;47.458;9.644;2022-07-17T15:44:59;3.35;;;0.98;;
38935;SDS011;25541;47.458;9.644;2022-07-17T15:47:24;2.75;;;1.00;;
38935;SDS011;25541;47.458;9.644;2022-07-17T15:49:50;3.50;;;1.10;;
38935;SDS011;25541;47.458;9.644;2022-07-17T15:52:16;2.50;;;1.00;;
38935;SDS011;25541;47.458;9.644;2022-07-17T15:54:41;7.10;;;0.93;;
38935;SDS011;25541;47.458;9.644;2022-07-17T15:57:07;4.40;;;1.50;;
38935;SDS011;25541;47.458;9.644;2022-07-17T15:59:33;1.88;;;1.13;;
38935;SDS011;25541;47.458;9.644;2022-07-17T16:01:58;3.72;;;1.00;;
38935;SDS011;25541;47.458;9.644;2022-07-17T16:04:24;2.25;;;1.20;;
38935;SDS011;25541;47.458;9.644;2022-07-17T16:06:50;2.75;;;0.85;;
38935;SDS011;25541;47.458;9.644;2022-07-17T16:09:16;5.13;;;0.82;;
38935;SDS011;25541;47.458;9.644;2022-07-17T16:11:43;2.55;;;1.02;;
38935;SDS011;25541;47.458;9.644;2022-07-17T16:14:09;3.80;;;1.05;;
38935;SDS011;25541;47.458;9.644;2022-07-17T16:16:35;2.25;;;0.90;;
38935;SDS011;25541;47.458;9.644;2022-07-17T16:19:00;4.45;;;1.33;;
38935;SDS011;25541;47.458;9.644;2022-07-17T16:21:26;4.93;;;1.15;;
38935;SDS011;25541;47.458;9.644;2022-07-17T16:23:52;2.53;;;1.23;;
38935;SDS011;25541;47.458;9.644;2022-07-17T16:26:18;2.80;;;0.90;;
38935;SDS011;25541;47.458;9.644;2022-07-17T16:28:44;2.30;;;0.80;;
38935;SDS011;25541;47.458;9.644;2022-07-17T16:31:10;2.05;;;1.02;;
38935;SDS011;25541;47.458;9.644;2022-07-17T16:33:37;2.88;;;0.82;;
38935;SDS011;25541;47.458;9.644;2022-07-17T16:36:03;2.05;;;0.77;;
38935;SDS011;25541;47.458;9.644;2022-07-17T16:38:29;3.88;;;0.95;;
38935;SDS011;25541;47.458;9.644;2022-07-17T16:40:54;3.10;;;0.80;;
38935;SDS011;25541;47.458;9.644;2022-07-17T16:43:20;3.60;;;1.10;;
38935;SDS011;25541;47.458;9.644;2022-07-17T16:45:46;3.25;;;0.73;;
38935;SDS011;25541;47.458;9.644;2022-07-17T16:48:13;2.33;;;1.00;;
38935;SDS011;25541;47.458;9.644;2022-07-17T16:50:38;2.20;;;1.08;;
38935;SDS011;25541;47.458;9.644;2022-07-17T16:53:09;1.60;;;0.82;;
38935;SDS011;25541;47.458;9.644;2022-07-17T16:55:35;4.45;;;0.75;;
38935;SDS011;25541;47.458;9.644;2022-07-17T16:58:02;2.67;;;0.90;;
38935;SDS011;25541;47.458;9.644;2022-07-17T17:00:29;3.95;;;0.82;;
38935;SDS011;25541;47.458;9.644;2022-07-17T17:02:55;4.00;;;1.52;;
38935;SDS011;25541;47.458;9.644;2022-07-17T17:05:21;2.22;;;0.90;;
38935;SDS011;25541;47.458;9.644;2022-07-17T17:07:46;2.55;;;1.10;;
38935;SDS011;25541;47.458;9.644;2022-07-17T17:10:12;1.70;;;0.75;;
38935;SDS011;25541;47.458;9.644;2022-07-17T17:12:38;1.77;;;0.85;;
38935;SDS011;25541;47.458;9.644;2022-07-17T17:15:06;4.32;;;1.00;;
38935;SDS011;25541;47.458;9.644;2022-07-17T17:17:32;3.95;;;1.05;;
38935;SDS011;25541;47.458;9.644;2022-07-17T17:19:58;4.20;;;1.13;;
38935;SDS011;25541;47.458;9.644;2022-07-17T17:22:23;2.92;;;1.05;;
38935;SDS011;25541;47.458;9.644;2022-07-17T17:24:49;2.90;;;1.80;;
38935;SDS011;25541;47.458;9.644;2022-07-17T17:27:15;2.08;;;1.05;;
38935;SDS011;25541;47.458;9.644;2022-07-17T17:29:40;3.30;;;1.05;;
38935;SDS011;25541;47.458;9.644;2022-07-17T17:32:06;3.67;;;0.70;;
38935;SDS011;25541;47.458;9.644;2022-07-17T17:34:32;3.63;;;1.02;;
38935;SDS011;25541;47.458;9.644;2022-07-17T17:36:57;1.98;;;0.80;;
38935;SDS011;25541;47.458;9.644;2022-07-17T17:39:23;5.60;;;0.70;;
38935;SDS011;25541;47.458;9.644;2022-07-17T17:41:49;1.80;;;0.77;;
38935;SDS011;25541;47.458;9.644;2022-07-17T17:44:15;2.40;;;0.90;;
38935;SDS011;25541;47.458;9.644;2022-07-17T17:46:40;5.70;;;1.30;;
38935;SDS011;25541;47.458;9.644;2022-07-17T17:49:06;2.50;;;0.82;;
38935;SDS011;25541;47.458;9.644;2022-07-17T17:51:32;2.45;;;0.88;;
38935;SDS011;25541;47.458;9.644;2022-07-17T17:53:58;6.18;;;0.75;;
38935;SDS011;25541;47.458;9.644;2022-07-17T17:56:24;3.35;;;0.93;;
38935;SDS011;25541;47.458;9.644;2022-07-17T17:58:49;3.42;;;1.13;;
38935;SDS011;25541;47.458;9.644;2022-07-17T18:01:15;2.10;;;1.00;;
38935;SDS011;25541;47.458;9.644;2022-07-17T18:03:41;1.58;;;0.68;;
38935;SDS011;25541;47.458;9.644;2022-07-17T18:06:07;3.45;;;0.82;;
38935;SDS011;25541;47.458;9.644;2022-07-17T18:08:33;2.13;;;0.82;;
38935;SDS011;25541;47.458;9.644;2022-07-17T18:10:58;3.25;;;0.98;;
38935;SDS011;25541;47.458;9.644;2022-07-17T18:13:27;3.65;;;1.27;;
38935;SDS011;25541;47.458;9.644;2022-07-17T18:15:55;3.38;;;1.05;;
38935;SDS011;25541;47.458;9.644;2022-07-17T18:18:21;2.42;;;1.15;;
38935;SDS011;25541;47.458;9.644;2022-07-17T18:20:47;2.25;;;1.02;;
38935;SDS011;25541;47.458;9.644;2022-07-17T18:23:12;1.77;;;0.98;;
38935;SDS011;25541;47.458;9.644;2022-07-17T18:25:38;2.80;;;1.38;;
38935;SDS011;25541;47.458;9.644;2022-07-17T18:28:06;2.60;;;1.05;;
38935;SDS011;25541;47.458;9.644;2022-07-17T18:30:34;2.78;;;1.00;;
38935;SDS011;25541;47.458;9.644;2022-07-17T18:33:00;1.60;;;0.90;;
38935;SDS011;25541;47.458;9.644;2022-07-17T18:35:26;1.35;;;0.85;;
38935;SDS011;25541;47.458;9.644;2022-07-17T18:37:52;1.58;;;0.60;;
38935;SDS011;25541;47.458;9.644;2022-07-17T18:40:18;4.10;;;1.13;;
38935;SDS011;25541;47.458;9.644;2022-07-17T18:42:44;1.80;;;0.82;;
38935;SDS011;25541;47.458;9.644;2022-07-17T18:45:10;5.25;;;1.50;;
38935;SDS011;25541;47.458;9.644;2022-07-17T18:47:36;3.13;;;1.23;;
38935;SDS011;25541;47.458;9.644;2022-07-17T18:50:03;3.85;;;1.67;;
38935;SDS011;25541;47.458;9.644;2022-07-17T18:52:29;4.60;;;2.42;;
38935;SDS011;25541;47.458;9.644;2022-07-17T18:54:57;3.55;;;1.38;;
38935;SDS011;25541;47.458;9.644;2022-07-17T18:57:23;6.55;;;1.23;;
38935;SDS011;25541;47.458;9.644;2022-07-17T18:59:49;3.90;;;1.30;;
38935;SDS011;25541;47.458;9.644;2022-07-17T19:02:15;4.20;;;1.35;;
38935;SDS011;25541;47.458;9.644;2022-07-17T19:04:43;3.72;;;1.13;;
38935;SDS011;25541;47.458;9.644;2022-07-17T19:07:11;2.17;;;0.82;;
38935;SDS011;25541;47.458;9.644;2022-07-17T19:09:36;3.05;;;0.80;;